Terminal Aerodrome Forecast
Issued by NWS

Home | Current Version | Previous Version | Text Only | Print | Product List | Glossary On
Versions: 1 2 3 4 5 6 7 8 9 10 11 12 13 14 15 16 17 18 19 20 21
000
FTUS41 KGYX 071156 AAA
TAFLEB
TAF AMD
KLEB 071156Z 0712/0812 VRB03KT 6SM HZ OVC025
     FM071300 19005KT P6SM SCT015 OVC035
     FM071600 20008KT 5SM -SHRA OVC025
     FM080600 20005KT 1 1/2SM BR OVC015=

USA.gov is the U.S. government's official web portal to all federal, state and local government web resources and services.